sensor_id;sensor_type;location;lat;lon;timestamp;P1;durP1;ratioP1;P2;durP2;ratioP2
27383;SDS011;14851;51.166;4.760;2023-07-22T00:00:41;10.18;;;7.63;;
27383;SDS011;14851;51.166;4.760;2023-07-22T00:03:08;8.20;;;6.93;;
27383;SDS011;14851;51.166;4.760;2023-07-22T00:05:36;10.13;;;7.20;;
27383;SDS011;14851;51.166;4.760;2023-07-22T00:08:03;9.25;;;6.93;;
27383;SDS011;14851;51.166;4.760;2023-07-22T00:10:29;9.02;;;7.60;;
27383;SDS011;14851;51.166;4.760;2023-07-22T00:12:54;11.57;;;8.48;;
27383;SDS011;14851;51.166;4.760;2023-07-22T00:15:23;10.52;;;7.88;;
27383;SDS011;14851;51.166;4.760;2023-07-22T00:17:50;8.73;;;7.60;;
27383;SDS011;14851;51.166;4.760;2023-07-22T00:20:16;9.90;;;7.55;;
27383;SDS011;14851;51.166;4.760;2023-07-22T00:22:42;7.95;;;7.15;;
27383;SDS011;14851;51.166;4.760;2023-07-22T00:25:11;8.63;;;7.68;;
27383;SDS011;14851;51.166;4.760;2023-07-22T00:27:38;9.30;;;7.90;;
27383;SDS011;14851;51.166;4.760;2023-07-22T00:30:08;8.50;;;7.28;;
27383;SDS011;14851;51.166;4.760;2023-07-22T00:32:37;9.55;;;8.20;;
27383;SDS011;14851;51.166;4.760;2023-07-22T00:35:04;8.55;;;7.13;;
27383;SDS011;14851;51.166;4.760;2023-07-22T00:37:37;8.45;;;7.53;;
27383;SDS011;14851;51.166;4.760;2023-07-22T00:40:03;9.18;;;7.57;;
27383;SDS011;14851;51.166;4.760;2023-07-22T00:42:36;10.07;;;8.38;;
27383;SDS011;14851;51.166;4.760;2023-07-22T00:45:03;10.00;;;7.40;;
27383;SDS011;14851;51.166;4.760;2023-07-22T00:47:31;8.55;;;7.68;;
27383;SDS011;14851;51.166;4.760;2023-07-22T00:50:01;9.95;;;7.53;;
27383;SDS011;14851;51.166;4.760;2023-07-22T00:52:29;8.82;;;7.63;;
27383;SDS011;14851;51.166;4.760;2023-07-22T00:54:55;9.82;;;8.25;;
27383;SDS011;14851;51.166;4.760;2023-07-22T00:57:23;9.27;;;7.88;;
27383;SDS011;14851;51.166;4.760;2023-07-22T00:59:49;10.18;;;8.45;;
27383;SDS011;14851;51.166;4.760;2023-07-22T01:02:15;10.73;;;8.10;;
27383;SDS011;14851;51.166;4.760;2023-07-22T01:04:43;12.95;;;7.38;;
27383;SDS011;14851;51.166;4.760;2023-07-22T01:07:09;9.35;;;7.68;;
27383;SDS011;14851;51.166;4.760;2023-07-22T01:09:36;9.75;;;7.47;;
27383;SDS011;14851;51.166;4.760;2023-07-22T01:12:03;11.27;;;7.85;;
27383;SDS011;14851;51.166;4.760;2023-07-22T01:14:32;9.82;;;8.15;;
27383;SDS011;14851;51.166;4.760;2023-07-22T01:17:00;10.13;;;8.43;;
27383;SDS011;14851;51.166;4.760;2023-07-22T01:19:32;14.07;;;9.15;;
27383;SDS011;14851;51.166;4.760;2023-07-22T01:21:59;10.52;;;8.13;;
27383;SDS011;14851;51.166;4.760;2023-07-22T01:24:31;11.35;;;8.20;;
27383;SDS011;14851;51.166;4.760;2023-07-22T01:26:57;10.25;;;8.57;;
27383;SDS011;14851;51.166;4.760;2023-07-22T01:29:23;10.23;;;8.10;;
27383;SDS011;14851;51.166;4.760;2023-07-22T01:31:51;8.45;;;7.55;;
27383;SDS011;14851;51.166;4.760;2023-07-22T01:34:19;12.20;;;8.88;;
27383;SDS011;14851;51.166;4.760;2023-07-22T01:36:45;11.48;;;8.82;;
27383;SDS011;14851;51.166;4.760;2023-07-22T01:39:19;11.65;;;8.82;;
27383;SDS011;14851;51.166;4.760;2023-07-22T01:41:45;11.30;;;9.68;;
27383;SDS011;14851;51.166;4.760;2023-07-22T01:44:11;13.90;;;10.15;;
27383;SDS011;14851;51.166;4.760;2023-07-22T01:46:37;11.13;;;8.80;;
27383;SDS011;14851;51.166;4.760;2023-07-22T01:49:06;10.68;;;8.52;;
27383;SDS011;14851;51.166;4.760;2023-07-22T01:51:35;11.00;;;9.38;;
27383;SDS011;14851;51.166;4.760;2023-07-22T01:54:07;11.57;;;8.68;;
27383;SDS011;14851;51.166;4.760;2023-07-22T01:56:35;11.32;;;9.52;;
27383;SDS011;14851;51.166;4.760;2023-07-22T01:59:01;10.40;;;8.73;;
27383;SDS011;14851;51.166;4.760;2023-07-22T02:01:27;12.75;;;9.68;;
27383;SDS011;14851;51.166;4.760;2023-07-22T02:03:57;12.70;;;9.50;;
27383;SDS011;14851;51.166;4.760;2023-07-22T02:06:28;10.88;;;8.60;;
27383;SDS011;14851;51.166;4.760;2023-07-22T02:08:54;13.02;;;10.45;;
27383;SDS011;14851;51.166;4.760;2023-07-22T02:11:21;13.27;;;10.25;;
27383;SDS011;14851;51.166;4.760;2023-07-22T02:13:47;15.65;;;10.70;;
27383;SDS011;14851;51.166;4.760;2023-07-22T02:16:16;14.07;;;10.73;;
27383;SDS011;14851;51.166;4.760;2023-07-22T02:18:44;13.60;;;9.70;;
27383;SDS011;14851;51.166;4.760;2023-07-22T02:21:10;12.20;;;10.43;;
27383;SDS011;14851;51.166;4.760;2023-07-22T02:23:39;13.25;;;10.82;;
27383;SDS011;14851;51.166;4.760;2023-07-22T02:26:05;15.23;;;11.48;;
27383;SDS011;14851;51.166;4.760;2023-07-22T02:28:34;12.27;;;10.07;;
27383;SDS011;14851;51.166;4.760;2023-07-22T02:31:01;13.13;;;10.32;;
27383;SDS011;14851;51.166;4.760;2023-07-22T02:33:34;13.55;;;10.65;;
27383;SDS011;14851;51.166;4.760;2023-07-22T02:36:03;15.05;;;9.70;;
27383;SDS011;14851;51.166;4.760;2023-07-22T02:38:32;14.33;;;10.60;;
27383;SDS011;14851;51.166;4.760;2023-07-22T02:41:05;11.05;;;9.85;;
27383;SDS011;14851;51.166;4.760;2023-07-22T02:43:34;13.25;;;9.82;;
27383;SDS011;14851;51.166;4.760;2023-07-22T02:46:02;14.57;;;10.77;;
27383;SDS011;14851;51.166;4.760;2023-07-22T02:48:32;14.68;;;9.90;;
27383;SDS011;14851;51.166;4.760;2023-07-22T02:51:06;13.07;;;10.23;;
27383;SDS011;14851;51.166;4.760;2023-07-22T02:53:34;15.20;;;10.35;;
27383;SDS011;14851;51.166;4.760;2023-07-22T02:56:04;14.43;;;10.32;;
27383;SDS011;14851;51.166;4.760;2023-07-22T02:58:34;16.02;;;9.70;;
27383;SDS011;14851;51.166;4.760;2023-07-22T03:01:03;14.98;;;10.07;;
27383;SDS011;14851;51.166;4.760;2023-07-22T03:03:31;12.75;;;9.98;;
27383;SDS011;14851;51.166;4.760;2023-07-22T03:06:00;15.65;;;10.07;;
27383;SDS011;14851;51.166;4.760;2023-07-22T03:08:27;14.43;;;9.60;;
27383;SDS011;14851;51.166;4.760;2023-07-22T03:10:53;16.17;;;10.82;;
27383;SDS011;14851;51.166;4.760;2023-07-22T03:13:19;17.80;;;10.52;;
27383;SDS011;14851;51.166;4.760;2023-07-22T03:15:46;13.82;;;10.05;;
27383;SDS011;14851;51.166;4.760;2023-07-22T03:18:12;13.15;;;10.30;;
27383;SDS011;14851;51.166;4.760;2023-07-22T03:20:38;12.43;;;10.35;;
27383;SDS011;14851;51.166;4.760;2023-07-22T03:23:05;14.57;;;10.65;;
27383;SDS011;14851;51.166;4.760;2023-07-22T03:25:31;14.10;;;10.48;;
27383;SDS011;14851;51.166;4.760;2023-07-22T03:28:05;13.32;;;10.25;;
27383;SDS011;14851;51.166;4.760;2023-07-22T03:30:32;12.40;;;10.00;;
27383;SDS011;14851;51.166;4.760;2023-07-22T03:32:59;14.50;;;10.10;;
27383;SDS011;14851;51.166;4.760;2023-07-22T03:35:27;15.27;;;10.75;;
27383;SDS011;14851;51.166;4.760;2023-07-22T03:37:53;14.02;;;10.32;;
27383;SDS011;14851;51.166;4.760;2023-07-22T03:40:21;12.57;;;9.63;;
27383;SDS011;14851;51.166;4.760;2023-07-22T03:42:53;14.43;;;10.40;;
27383;SDS011;14851;51.166;4.760;2023-07-22T03:45:22;13.82;;;10.32;;
27383;SDS011;14851;51.166;4.760;2023-07-22T03:47:52;17.23;;;10.38;;
27383;SDS011;14851;51.166;4.760;2023-07-22T03:50:23;14.75;;;10.38;;
27383;SDS011;14851;51.166;4.760;2023-07-22T03:52:50;14.25;;;11.02;;
27383;SDS011;14851;51.166;4.760;2023-07-22T03:55:17;15.07;;;10.02;;
27383;SDS011;14851;51.166;4.760;2023-07-22T03:57:46;14.25;;;10.38;;
27383;SDS011;14851;51.166;4.760;2023-07-22T04:00:15;13.20;;;10.55;;
27383;SDS011;14851;51.166;4.760;2023-07-22T04:02:42;12.68;;;10.00;;
27383;SDS011;14851;51.166;4.760;2023-07-22T04:05:12;15.15;;;10.50;;
27383;SDS011;14851;51.166;4.760;2023-07-22T04:07:44;15.82;;;10.52;;
27383;SDS011;14851;51.166;4.760;2023-07-22T04:10:12;15.88;;;10.85;;
27383;SDS011;14851;51.166;4.760;2023-07-22T04:12:40;17.58;;;10.45;;
27383;SDS011;14851;51.166;4.760;2023-07-22T04:15:06;13.38;;;10.10;;
27383;SDS011;14851;51.166;4.760;2023-07-22T04:17:35;15.27;;;11.00;;
27383;SDS011;14851;51.166;4.760;2023-07-22T04:20:01;15.15;;;10.65;;
27383;SDS011;14851;51.166;4.760;2023-07-22T04:22:32;21.73;;;11.35;;
27383;SDS011;14851;51.166;4.760;2023-07-22T04:25:01;15.57;;;10.35;;
27383;SDS011;14851;51.166;4.760;2023-07-22T04:27:27;14.93;;;10.27;;
27383;SDS011;14851;51.166;4.760;2023-07-22T04:29:52;13.57;;;10.35;;
27383;SDS011;14851;51.166;4.760;2023-07-22T04:32:18;16.42;;;10.90;;
27383;SDS011;14851;51.166;4.760;2023-07-22T04:34:44;14.48;;;10.65;;
27383;SDS011;14851;51.166;4.760;2023-07-22T04:37:14;17.42;;;10.85;;
27383;SDS011;14851;51.166;4.760;2023-07-22T04:39:42;12.88;;;10.40;;
27383;SDS011;14851;51.166;4.760;2023-07-22T04:42:08;13.95;;;11.05;;
27383;SDS011;14851;51.166;4.760;2023-07-22T04:44:33;13.75;;;10.68;;
27383;SDS011;14851;51.166;4.760;2023-07-22T04:46:59;15.32;;;10.90;;
27383;SDS011;14851;51.166;4.760;2023-07-22T04:49:27;15.35;;;11.00;;
27383;SDS011;14851;51.166;4.760;2023-07-22T04:51:53;15.27;;;10.40;;
27383;SDS011;14851;51.166;4.760;2023-07-22T04:54:19;17.00;;;11.00;;
27383;SDS011;14851;51.166;4.760;2023-07-22T04:56:47;19.15;;;10.25;;
27383;SDS011;14851;51.166;4.760;2023-07-22T04:59:13;18.13;;;11.15;;
27383;SDS011;14851;51.166;4.760;2023-07-22T05:01:40;13.50;;;10.35;;
27383;SDS011;14851;51.166;4.760;2023-07-22T05:04:06;14.57;;;10.90;;
27383;SDS011;14851;51.166;4.760;2023-07-22T05:06:34;15.50;;;11.05;;
27383;SDS011;14851;51.166;4.760;2023-07-22T05:09:01;18.00;;;10.93;;
27383;SDS011;14851;51.166;4.760;2023-07-22T05:11:27;13.07;;;10.30;;
27383;SDS011;14851;51.166;4.760;2023-07-22T05:13:52;18.65;;;11.05;;
27383;SDS011;14851;51.166;4.760;2023-07-22T05:16:19;19.55;;;10.43;;
27383;SDS011;14851;51.166;4.760;2023-07-22T05:18:46;15.32;;;10.80;;
27383;SDS011;14851;51.166;4.760;2023-07-22T05:21:14;15.05;;;10.52;;
27383;SDS011;14851;51.166;4.760;2023-07-22T05:23:40;13.60;;;10.15;;
27383;SDS011;14851;51.166;4.760;2023-07-22T05:26:08;17.38;;;11.00;;
27383;SDS011;14851;51.166;4.760;2023-07-22T05:28:36;14.55;;;10.88;;
27383;SDS011;14851;51.166;4.760;2023-07-22T05:31:02;17.85;;;11.20;;
27383;SDS011;14851;51.166;4.760;2023-07-22T05:33:28;15.55;;;10.95;;
27383;SDS011;14851;51.166;4.760;2023-07-22T05:35:59;17.90;;;11.20;;
27383;SDS011;14851;51.166;4.760;2023-07-22T05:38:27;14.75;;;10.75;;
27383;SDS011;14851;51.166;4.760;2023-07-22T05:40:55;16.85;;;11.45;;
27383;SDS011;14851;51.166;4.760;2023-07-22T05:43:23;19.90;;;11.30;;
27383;SDS011;14851;51.166;4.760;2023-07-22T05:45:49;16.73;;;10.85;;
27383;SDS011;14851;51.166;4.760;2023-07-22T05:48:15;18.65;;;10.60;;
27383;SDS011;14851;51.166;4.760;2023-07-22T05:50:41;17.90;;;11.90;;
27383;SDS011;14851;51.166;4.760;2023-07-22T05:53:08;17.90;;;11.55;;
27383;SDS011;14851;51.166;4.760;2023-07-22T05:55:36;15.75;;;11.65;;
27383;SDS011;14851;51.166;4.760;2023-07-22T05:58:04;16.35;;;11.02;;
27383;SDS011;14851;51.166;4.760;2023-07-22T06:00:33;16.20;;;11.25;;
27383;SDS011;14851;51.166;4.760;2023-07-22T06:03:00;17.23;;;10.95;;
27383;SDS011;14851;51.166;4.760;2023-07-22T06:05:26;18.02;;;10.77;;
27383;SDS011;14851;51.166;4.760;2023-07-22T06:07:52;16.33;;;11.05;;
27383;SDS011;14851;51.166;4.760;2023-07-22T06:10:22;15.65;;;10.88;;
27383;SDS011;14851;51.166;4.760;2023-07-22T06:12:56;16.20;;;10.60;;
27383;SDS011;14851;51.166;4.760;2023-07-22T06:15:24;17.38;;;11.00;;
27383;SDS011;14851;51.166;4.760;2023-07-22T06:17:53;17.10;;;10.27;;
27383;SDS011;14851;51.166;4.760;2023-07-22T06:20:21;16.77;;;10.73;;
27383;SDS011;14851;51.166;4.760;2023-07-22T06:22:48;12.80;;;9.13;;
27383;SDS011;14851;51.166;4.760;2023-07-22T06:25:14;16.55;;;11.00;;
27383;SDS011;14851;51.166;4.760;2023-07-22T06:27:40;15.95;;;10.23;;
27383;SDS011;14851;51.166;4.760;2023-07-22T06:30:08;18.85;;;10.60;;
27383;SDS011;14851;51.166;4.760;2023-07-22T06:32:36;19.48;;;10.48;;
27383;SDS011;14851;51.166;4.760;2023-07-22T06:35:03;19.00;;;10.90;;
27383;SDS011;14851;51.166;4.760;2023-07-22T06:37:29;16.52;;;10.75;;
27383;SDS011;14851;51.166;4.760;2023-07-22T06:39:55;17.02;;;10.70;;
27383;SDS011;14851;51.166;4.760;2023-07-22T06:42:21;13.63;;;9.90;;
27383;SDS011;14851;51.166;4.760;2023-07-22T06:44:47;13.50;;;8.93;;
27383;SDS011;14851;51.166;4.760;2023-07-22T06:47:22;20.38;;;10.90;;
27383;SDS011;14851;51.166;4.760;2023-07-22T06:49:51;18.98;;;10.45;;
27383;SDS011;14851;51.166;4.760;2023-07-22T06:52:17;17.02;;;10.43;;
27383;SDS011;14851;51.166;4.760;2023-07-22T06:54:43;17.15;;;9.45;;
27383;SDS011;14851;51.166;4.760;2023-07-22T06:57:10;18.00;;;10.35;;
27383;SDS011;14851;51.166;4.760;2023-07-22T06:59:41;16.00;;;9.85;;
27383;SDS011;14851;51.166;4.760;2023-07-22T07:02:09;14.60;;;9.82;;
27383;SDS011;14851;51.166;4.760;2023-07-22T07:04:35;17.45;;;9.90;;
27383;SDS011;14851;51.166;4.760;2023-07-22T07:07:04;13.63;;;9.00;;
27383;SDS011;14851;51.166;4.760;2023-07-22T07:09:34;17.05;;;8.93;;
27383;SDS011;14851;51.166;4.760;2023-07-22T07:12:00;13.00;;;8.02;;
27383;SDS011;14851;51.166;4.760;2023-07-22T07:14:26;17.92;;;9.68;;
27383;SDS011;14851;51.166;4.760;2023-07-22T07:16:53;17.50;;;9.13;;
27383;SDS011;14851;51.166;4.760;2023-07-22T07:19:20;13.40;;;8.73;;
27383;SDS011;14851;51.166;4.760;2023-07-22T07:21:46;13.63;;;7.90;;
27383;SDS011;14851;51.166;4.760;2023-07-22T07:24:12;15.32;;;8.02;;
27383;SDS011;14851;51.166;4.760;2023-07-22T07:26:38;15.25;;;9.52;;
27383;SDS011;14851;51.166;4.760;2023-07-22T07:29:07;12.82;;;7.80;;
27383;SDS011;14851;51.166;4.760;2023-07-22T07:31:33;12.85;;;7.45;;
27383;SDS011;14851;51.166;4.760;2023-07-22T07:33:59;16.55;;;7.57;;
27383;SDS011;14851;51.166;4.760;2023-07-22T07:36:25;14.23;;;7.72;;
27383;SDS011;14851;51.166;4.760;2023-07-22T07:38:51;13.73;;;8.02;;
27383;SDS011;14851;51.166;4.760;2023-07-22T07:41:17;12.32;;;6.38;;
27383;SDS011;14851;51.166;4.760;2023-07-22T07:43:50;11.07;;;6.75;;
27383;SDS011;14851;51.166;4.760;2023-07-22T07:46:20;14.27;;;6.70;;
27383;SDS011;14851;51.166;4.760;2023-07-22T07:48:51;10.68;;;6.22;;
27383;SDS011;14851;51.166;4.760;2023-07-22T07:51:22;12.75;;;7.05;;
27383;SDS011;14851;51.166;4.760;2023-07-22T07:53:50;10.35;;;6.13;;
27383;SDS011;14851;51.166;4.760;2023-07-22T07:56:17;13.30;;;7.05;;
27383;SDS011;14851;51.166;4.760;2023-07-22T07:58:44;9.57;;;6.20;;
27383;SDS011;14851;51.166;4.760;2023-07-22T08:01:13;12.17;;;6.00;;
27383;SDS011;14851;51.166;4.760;2023-07-22T08:03:41;13.18;;;5.80;;
27383;SDS011;14851;51.166;4.760;2023-07-22T08:06:08;9.63;;;4.85;;
27383;SDS011;14851;51.166;4.760;2023-07-22T08:08:38;9.77;;;5.50;;
27383;SDS011;14851;51.166;4.760;2023-07-22T08:11:09;11.27;;;5.43;;
27383;SDS011;14851;51.166;4.760;2023-07-22T08:13:38;10.90;;;5.32;;
27383;SDS011;14851;51.166;4.760;2023-07-22T08:16:10;18.00;;;5.90;;
27383;SDS011;14851;51.166;4.760;2023-07-22T08:18:38;9.70;;;5.35;;
27383;SDS011;14851;51.166;4.760;2023-07-22T08:21:05;8.23;;;5.20;;
27383;SDS011;14851;51.166;4.760;2023-07-22T08:23:33;7.45;;;5.22;;
27383;SDS011;14851;51.166;4.760;2023-07-22T08:26:02;11.70;;;5.00;;
27383;SDS011;14851;51.166;4.760;2023-07-22T08:28:31;10.63;;;5.85;;
27383;SDS011;14851;51.166;4.760;2023-07-22T08:30:57;9.40;;;4.78;;
27383;SDS011;14851;51.166;4.760;2023-07-22T08:33:26;7.70;;;4.50;;
27383;SDS011;14851;51.166;4.760;2023-07-22T08:35:52;9.70;;;4.35;;
27383;SDS011;14851;51.166;4.760;2023-07-22T08:38:18;12.05;;;5.65;;
27383;SDS011;14851;51.166;4.760;2023-07-22T08:40:50;10.98;;;5.50;;
27383;SDS011;14851;51.166;4.760;2023-07-22T08:43:18;6.00;;;4.28;;
27383;SDS011;14851;51.166;4.760;2023-07-22T08:45:45;8.00;;;4.32;;
27383;SDS011;14851;51.166;4.760;2023-07-22T08:48:19;7.95;;;4.50;;
27383;SDS011;14851;51.166;4.760;2023-07-22T08:53:46;6.85;;;4.70;;
27383;SDS011;14851;51.166;4.760;2023-07-22T08:56:13;8.52;;;4.20;;
27383;SDS011;14851;51.166;4.760;2023-07-22T08:58:39;10.70;;;3.72;;
27383;SDS011;14851;51.166;4.760;2023-07-22T09:01:10;10.23;;;4.00;;
27383;SDS011;14851;51.166;4.760;2023-07-22T09:03:36;8.10;;;3.53;;
27383;SDS011;14851;51.166;4.760;2023-07-22T09:06:10;6.07;;;3.22;;
27383;SDS011;14851;51.166;4.760;2023-07-22T09:08:36;6.57;;;3.72;;
27383;SDS011;14851;51.166;4.760;2023-07-22T09:11:03;5.63;;;2.78;;
27383;SDS011;14851;51.166;4.760;2023-07-22T09:13:29;7.28;;;3.15;;
27383;SDS011;14851;51.166;4.760;2023-07-22T09:15:57;6.32;;;2.92;;
27383;SDS011;14851;51.166;4.760;2023-07-22T09:18:25;4.65;;;3.28;;
27383;SDS011;14851;51.166;4.760;2023-07-22T09:20:51;7.50;;;2.70;;
27383;SDS011;14851;51.166;4.760;2023-07-22T09:23:31;5.20;;;2.78;;
27383;SDS011;14851;51.166;4.760;2023-07-22T09:26:14;8.02;;;2.88;;
27383;SDS011;14851;51.166;4.760;2023-07-22T09:28:54;7.90;;;2.80;;
27383;SDS011;14851;51.166;4.760;2023-07-22T09:31:25;7.03;;;2.40;;
27383;SDS011;14851;51.166;4.760;2023-07-22T09:33:56;4.85;;;2.50;;
27383;SDS011;14851;51.166;4.760;2023-07-22T09:39:20;4.55;;;2.55;;
27383;SDS011;14851;51.166;4.760;2023-07-22T09:41:52;4.75;;;3.15;;
27383;SDS011;14851;51.166;4.760;2023-07-22T09:44:19;6.82;;;3.08;;
27383;SDS011;14851;51.166;4.760;2023-07-22T09:46:46;6.10;;;2.83;;
27383;SDS011;14851;51.166;4.760;2023-07-22T09:49:16;5.80;;;3.22;;
27383;SDS011;14851;51.166;4.760;2023-07-22T09:51:46;4.55;;;2.17;;
27383;SDS011;14851;51.166;4.760;2023-07-22T09:54:12;6.38;;;3.08;;
27383;SDS011;14851;51.166;4.760;2023-07-22T09:56:44;6.63;;;2.47;;
27383;SDS011;14851;51.166;4.760;2023-07-22T09:59:12;3.10;;;1.63;;
27383;SDS011;14851;51.166;4.760;2023-07-22T10:01:41;5.32;;;2.08;;
27383;SDS011;14851;51.166;4.760;2023-07-22T10:04:08;4.97;;;1.90;;
27383;SDS011;14851;51.166;4.760;2023-07-22T10:06:35;4.60;;;2.28;;
27383;SDS011;14851;51.166;4.760;2023-07-22T10:09:04;8.15;;;1.80;;
27383;SDS011;14851;51.166;4.760;2023-07-22T10:11:33;3.50;;;1.80;;
27383;SDS011;14851;51.166;4.760;2023-07-22T10:14:02;3.00;;;1.40;;
27383;SDS011;14851;51.166;4.760;2023-07-22T10:16:29;5.65;;;1.60;;
27383;SDS011;14851;51.166;4.760;2023-07-22T10:18:55;3.33;;;1.80;;
27383;SDS011;14851;51.166;4.760;2023-07-22T10:21:25;5.55;;;2.17;;
27383;SDS011;14851;51.166;4.760;2023-07-22T10:23:53;9.68;;;2.20;;
27383;SDS011;14851;51.166;4.760;2023-07-22T10:26:21;5.05;;;1.80;;
27383;SDS011;14851;51.166;4.760;2023-07-22T10:28:47;5.38;;;1.95;;
27383;SDS011;14851;51.166;4.760;2023-07-22T10:31:13;4.97;;;1.90;;
27383;SDS011;14851;51.166;4.760;2023-07-22T10:36:13;3.03;;;1.77;;
27383;SDS011;14851;51.166;4.760;2023-07-22T10:38:41;6.00;;;2.92;;
27383;SDS011;14851;51.166;4.760;2023-07-22T10:41:11;5.47;;;2.20;;
27383;SDS011;14851;51.166;4.760;2023-07-22T10:43:38;2.85;;;1.50;;
27383;SDS011;14851;51.166;4.760;2023-07-22T10:46:14;4.25;;;1.70;;
27383;SDS011;14851;51.166;4.760;2023-07-22T10:48:40;3.88;;;1.95;;
27383;SDS011;14851;51.166;4.760;2023-07-22T10:51:12;4.63;;;2.00;;
27383;SDS011;14851;51.166;4.760;2023-07-22T10:53:44;3.05;;;1.48;;
27383;SDS011;14851;51.166;4.760;2023-07-22T10:56:15;4.45;;;2.28;;
27383;SDS011;14851;51.166;4.760;2023-07-22T11:07:03;3.77;;;2.00;;
27383;SDS011;14851;51.166;4.760;2023-07-22T11:12:14;5.20;;;1.75;;
27383;SDS011;14851;51.166;4.760;2023-07-22T11:14:50;4.10;;;1.58;;
27383;SDS011;14851;51.166;4.760;2023-07-22T11:17:18;3.15;;;1.58;;
27383;SDS011;14851;51.166;4.760;2023-07-22T11:19:54;3.53;;;1.70;;
27383;SDS011;14851;51.166;4.760;2023-07-22T11:22:21;2.08;;;1.50;;
27383;SDS011;14851;51.166;4.760;2023-07-22T11:24:47;3.08;;;1.50;;
27383;SDS011;14851;51.166;4.760;2023-07-22T11:27:13;2.72;;;1.40;;
27383;SDS011;14851;51.166;4.760;2023-07-22T11:29:40;2.55;;;1.13;;
27383;SDS011;14851;51.166;4.760;2023-07-22T11:32:06;2.30;;;1.27;;
27383;SDS011;14851;51.166;4.760;2023-07-22T11:34:44;3.03;;;1.50;;
27383;SDS011;14851;51.166;4.760;2023-07-22T11:37:11;2.97;;;1.50;;
27383;SDS011;14851;51.166;4.760;2023-07-22T11:39:37;2.17;;;1.45;;
27383;SDS011;14851;51.166;4.760;2023-07-22T11:44:36;2.70;;;1.10;;
27383;SDS011;14851;51.166;4.760;2023-07-22T11:47:05;2.13;;;1.13;;
27383;SDS011;14851;51.166;4.760;2023-07-22T11:49:39;2.92;;;1.15;;
27383;SDS011;14851;51.166;4.760;2023-07-22T11:54:39;3.00;;;1.25;;
27383;SDS011;14851;51.166;4.760;2023-07-22T11:59:45;1.73;;;1.40;;
27383;SDS011;14851;51.166;4.760;2023-07-22T12:02:16;1.73;;;1.20;;
27383;SDS011;14851;51.166;4.760;2023-07-22T12:04:53;3.00;;;1.02;;
27383;SDS011;14851;51.166;4.760;2023-07-22T12:07:28;3.05;;;1.30;;
27383;SDS011;14851;51.166;4.760;2023-07-22T12:10:00;2.42;;;1.00;;
27383;SDS011;14851;51.166;4.760;2023-07-22T12:15:13;2.03;;;1.17;;
27383;SDS011;14851;51.166;4.760;2023-07-22T12:20:10;4.43;;;1.60;;
27383;SDS011;14851;51.166;4.760;2023-07-22T12:22:36;3.15;;;1.38;;
27383;SDS011;14851;51.166;4.760;2023-07-22T12:25:05;3.47;;;1.38;;
27383;SDS011;14851;51.166;4.760;2023-07-22T12:27:31;3.63;;;1.30;;
27383;SDS011;14851;51.166;4.760;2023-07-22T12:29:57;3.38;;;1.50;;
27383;SDS011;14851;51.166;4.760;2023-07-22T12:32:23;3.03;;;1.83;;
27383;SDS011;14851;51.166;4.760;2023-07-22T12:34:49;5.00;;;1.70;;
27383;SDS011;14851;51.166;4.760;2023-07-22T12:37:15;3.45;;;1.23;;
27383;SDS011;14851;51.166;4.760;2023-07-22T12:39:41;2.30;;;1.30;;
27383;SDS011;14851;51.166;4.760;2023-07-22T12:42:11;3.95;;;1.40;;
27383;SDS011;14851;51.166;4.760;2023-07-22T12:44:39;2.00;;;1.40;;
27383;SDS011;14851;51.166;4.760;2023-07-22T12:47:05;4.35;;;1.38;;
27383;SDS011;14851;51.166;4.760;2023-07-22T12:49:33;2.75;;;1.30;;
27383;SDS011;14851;51.166;4.760;2023-07-22T12:52:02;3.08;;;1.45;;
27383;SDS011;14851;51.166;4.760;2023-07-22T12:54:30;3.53;;;1.30;;
27383;SDS011;14851;51.166;4.760;2023-07-22T12:56:56;3.88;;;1.15;;
27383;SDS011;14851;51.166;4.760;2023-07-22T12:59:22;1.65;;;1.05;;
27383;SDS011;14851;51.166;4.760;2023-07-22T13:01:48;2.33;;;1.10;;
27383;SDS011;14851;51.166;4.760;2023-07-22T13:04:16;2.58;;;1.30;;
27383;SDS011;14851;51.166;4.760;2023-07-22T13:06:42;2.47;;;1.67;;
27383;SDS011;14851;51.166;4.760;2023-07-22T13:09:10;4.32;;;1.50;;
27383;SDS011;14851;51.166;4.760;2023-07-22T13:11:38;3.97;;;1.55;;
27383;SDS011;14851;51.166;4.760;2023-07-22T13:14:04;2.15;;;1.17;;
27383;SDS011;14851;51.166;4.760;2023-07-22T13:16:30;1.73;;;1.00;;
27383;SDS011;14851;51.166;4.760;2023-07-22T13:18:56;2.45;;;1.40;;
27383;SDS011;14851;51.166;4.760;2023-07-22T13:21:25;2.95;;;1.40;;
27383;SDS011;14851;51.166;4.760;2023-07-22T13:23:52;5.28;;;1.40;;
27383;SDS011;14851;51.166;4.760;2023-07-22T13:26:18;5.20;;;1.70;;
27383;SDS011;14851;51.166;4.760;2023-07-22T13:28:44;3.03;;;1.40;;
27383;SDS011;14851;51.166;4.760;2023-07-22T13:31:09;3.50;;;1.60;;
27383;SDS011;14851;51.166;4.760;2023-07-22T13:33:35;4.13;;;1.35;;
27383;SDS011;14851;51.166;4.760;2023-07-22T13:36:01;1.80;;;1.60;;
27383;SDS011;14851;51.166;4.760;2023-07-22T13:38:27;2.95;;;1.40;;
27383;SDS011;14851;51.166;4.760;2023-07-22T13:40:55;3.78;;;2.00;;
27383;SDS011;14851;51.166;4.760;2023-07-22T13:43:21;3.78;;;1.70;;
27383;SDS011;14851;51.166;4.760;2023-07-22T13:45:49;2.10;;;1.50;;
27383;SDS011;14851;51.166;4.760;2023-07-22T13:48:14;3.90;;;1.80;;
27383;SDS011;14851;51.166;4.760;2023-07-22T13:50:40;22.95;;;14.27;;
27383;SDS011;14851;51.166;4.760;2023-07-22T13:53:09;2.88;;;1.90;;
27383;SDS011;14851;51.166;4.760;2023-07-22T13:55:35;3.75;;;1.30;;
27383;SDS011;14851;51.166;4.760;2023-07-22T13:58:01;2.22;;;1.35;;
27383;SDS011;14851;51.166;4.760;2023-07-22T14:00:27;4.55;;;1.45;;
27383;SDS011;14851;51.166;4.760;2023-07-22T14:02:53;4.63;;;1.50;;
27383;SDS011;14851;51.166;4.760;2023-07-22T14:05:19;5.13;;;1.40;;
27383;SDS011;14851;51.166;4.760;2023-07-22T14:07:45;3.58;;;1.70;;
27383;SDS011;14851;51.166;4.760;2023-07-22T14:10:12;4.30;;;1.55;;
27383;SDS011;14851;51.166;4.760;2023-07-22T14:12:38;4.75;;;2.92;;
27383;SDS011;14851;51.166;4.760;2023-07-22T14:15:04;3.35;;;1.30;;
27383;SDS011;14851;51.166;4.760;2023-07-22T14:17:32;2.38;;;1.50;;
27383;SDS011;14851;51.166;4.760;2023-07-22T14:20:00;7.13;;;3.60;;
27383;SDS011;14851;51.166;4.760;2023-07-22T14:22:25;2.53;;;1.60;;
27383;SDS011;14851;51.166;4.760;2023-07-22T14:24:51;4.32;;;1.63;;
27383;SDS011;14851;51.166;4.760;2023-07-22T14:27:20;6.00;;;3.10;;
27383;SDS011;14851;51.166;4.760;2023-07-22T14:29:46;9.80;;;6.63;;
27383;SDS011;14851;51.166;4.760;2023-07-22T14:32:17;7.57;;;2.60;;
27383;SDS011;14851;51.166;4.760;2023-07-22T14:34:44;3.13;;;1.83;;
27383;SDS011;14851;51.166;4.760;2023-07-22T14:37:16;3.92;;;2.00;;
27383;SDS011;14851;51.166;4.760;2023-07-22T14:39:44;6.63;;;2.20;;
27383;SDS011;14851;51.166;4.760;2023-07-22T14:42:12;4.97;;;1.95;;
27383;SDS011;14851;51.166;4.760;2023-07-22T14:44:39;3.83;;;1.42;;
27383;SDS011;14851;51.166;4.760;2023-07-22T14:47:05;2.90;;;1.25;;
27383;SDS011;14851;51.166;4.760;2023-07-22T14:49:31;3.22;;;1.33;;
27383;SDS011;14851;51.166;4.760;2023-07-22T14:51:56;6.88;;;1.73;;
27383;SDS011;14851;51.166;4.760;2023-07-22T14:54:25;3.95;;;1.73;;
27383;SDS011;14851;51.166;4.760;2023-07-22T14:56:51;3.85;;;1.50;;
27383;SDS011;14851;51.166;4.760;2023-07-22T14:59:19;2.95;;;1.58;;
27383;SDS011;14851;51.166;4.760;2023-07-22T15:01:45;2.15;;;1.30;;
27383;SDS011;14851;51.166;4.760;2023-07-22T15:04:10;2.65;;;1.48;;
27383;SDS011;14851;51.166;4.760;2023-07-22T15:06:39;5.05;;;1.55;;
27383;SDS011;14851;51.166;4.760;2023-07-22T15:09:04;3.47;;;1.55;;
27383;SDS011;14851;51.166;4.760;2023-07-22T15:11:34;3.70;;;1.20;;